createdAt,value
2019-03-22T00:00:39.644Z,1012.24
2019-03-22T00:01:39.675Z,1012.19
2019-03-22T00:02:39.634Z,1012.18
2019-03-22T00:03:39.633Z,1012.12
2019-03-22T00:04:39.601Z,1012.12
2019-03-22T00:05:39.585Z,1012.13
2019-03-22T00:06:39.579Z,1012.11
2019-03-22T00:07:39.599Z,1012.11
2019-03-22T00:08:39.557Z,1012.10
2019-03-22T00:09:39.575Z,1012.10
2019-03-22T00:10:39.531Z,1012.05
2019-03-22T00:11:39.521Z,1012.07
2019-03-22T00:12:39.507Z,1012.08
2019-03-22T00:13:39.557Z,1012.05
2019-03-22T00:14:39.486Z,1012.14
2019-03-22T00:15:39.495Z,1012.09
2019-03-22T00:16:39.485Z,1012.11
2019-03-22T00:17:39.447Z,1012.14
2019-03-22T00:18:39.435Z,1012.05
2019-03-22T00:19:39.483Z,1012.05
2019-03-22T00:20:39.414Z,1012.06
2019-03-22T00:21:39.434Z,1012.08
2019-03-22T00:22:39.404Z,1012.10
2019-03-22T00:23:39.383Z,1012.11
2019-03-22T00:24:39.390Z,1012.17
2019-03-22T00:25:39.425Z,1012.15
2019-03-22T00:26:39.353Z,1012.17
2019-03-22T00:27:39.362Z,1012.12
2019-03-22T00:28:39.325Z,1012.14
2019-03-22T00:29:39.319Z,1012.12
2019-03-22T00:30:39.304Z,1012.01
2019-03-22T00:31:39.338Z,1012.02
2019-03-22T00:32:39.282Z,1012.04
2019-03-22T00:33:39.301Z,1012.05
2019-03-22T00:34:39.257Z,1012.02
2019-03-22T00:35:39.253Z,1011.99
2019-03-22T00:36:39.243Z,1012.05
2019-03-22T00:37:39.279Z,1012.06
2019-03-22T00:38:39.219Z,1011.98
2019-03-22T00:39:39.232Z,1012.01
2019-03-22T00:40:39.201Z,1011.99
2019-03-22T00:41:39.187Z,1011.97
2019-03-22T00:42:39.173Z,1011.95
2019-03-22T00:43:39.222Z,1011.96
2019-03-22T00:44:39.167Z,1011.99
2019-03-22T00:45:39.201Z,1011.96
2019-03-22T00:46:39.146Z,1011.97
2019-03-22T00:47:39.125Z,1012.03
2019-03-22T00:48:39.125Z,1012.04
2019-03-22T00:49:39.154Z,1012.01
2019-03-22T00:50:39.094Z,1011.97
2019-03-22T00:51:39.084Z,1011.99
2019-03-22T00:52:39.139Z,1011.96
2019-03-22T00:53:39.050Z,1011.96
2019-03-22T00:54:39.039Z,1011.98
2019-03-22T00:55:39.072Z,1011.98
2019-03-22T00:56:39.023Z,1011.98
2019-03-22T00:57:39.012Z,1012.00
2019-03-22T00:58:39.040Z,1011.98
2019-03-22T00:59:38.984Z,1011.93
2019-03-22T01:00:38.974Z,1011.95
2019-03-22T01:01:39.186Z,1011.95
2019-03-22T01:02:38.951Z,1011.95
2019-03-22T01:03:38.958Z,1011.91
2019-03-22T01:04:38.959Z,1011.98
2019-03-22T01:05:38.915Z,1011.97
2019-03-22T01:06:38.909Z,1011.98
2019-03-22T01:07:38.997Z,1011.99
2019-03-22T01:08:38.888Z,1011.94
2019-03-22T01:09:38.882Z,1011.90
2019-03-22T01:10:38.882Z,1011.96
2019-03-22T01:11:38.858Z,1011.93
2019-03-22T01:12:38.843Z,1011.98
2019-03-22T01:13:38.882Z,1011.97
2019-03-22T01:14:38.827Z,1011.94
2019-03-22T01:15:38.807Z,1011.98
2019-03-22T01:16:38.812Z,1012.00
2019-03-22T01:17:38.803Z,1011.97
2019-03-22T01:18:38.778Z,1011.96
2019-03-22T01:19:38.854Z,1011.98
2019-03-22T01:20:38.753Z,1011.98
2019-03-22T01:21:38.759Z,1011.94
2019-03-22T01:22:38.754Z,1011.94
2019-03-22T01:23:38.743Z,1011.95
2019-03-22T01:24:38.718Z,1011.95
2019-03-22T01:25:38.767Z,1011.91
2019-03-22T01:26:38.701Z,1011.93
2019-03-22T01:27:40.599Z,1011.90
2019-03-22T01:28:38.692Z,1011.93
2019-03-22T01:29:38.686Z,1011.96
2019-03-22T01:30:38.651Z,1011.93
2019-03-22T01:31:38.684Z,1011.97
2019-03-22T01:32:38.662Z,1011.91
2019-03-22T01:33:38.623Z,1011.91
2019-03-22T01:34:38.610Z,1011.93
2019-03-22T01:35:38.654Z,1011.94
2019-03-22T01:36:38.604Z,1011.96
2019-03-22T01:37:38.644Z,1012.01
2019-03-22T01:38:38.569Z,1012.03
2019-03-22T01:39:38.548Z,1012.01
2019-03-22T01:40:38.566Z,1011.94
2019-03-22T01:41:38.561Z,1011.98
2019-03-22T01:42:38.542Z,1011.96
2019-03-22T01:43:38.557Z,1011.90
2019-03-22T01:44:38.492Z,1011.98
2019-03-22T01:45:38.490Z,1011.89
2019-03-22T01:46:38.494Z,1011.89
2019-03-22T01:47:38.514Z,1011.86
2019-03-22T01:48:38.448Z,1011.86
2019-03-22T01:49:38.488Z,1011.85
2019-03-22T01:50:38.471Z,1011.81
2019-03-22T01:51:38.440Z,1011.87
2019-03-22T01:52:38.405Z,1011.83
2019-03-22T01:53:38.422Z,1011.88
2019-03-22T01:54:38.417Z,1011.84
2019-03-22T01:55:38.531Z,1011.81
2019-03-22T01:56:38.380Z,1011.80
2019-03-22T01:57:38.359Z,1011.79
2019-03-22T01:58:38.340Z,1011.73
2019-03-22T01:59:38.331Z,1011.78
2019-03-22T02:00:38.321Z,1011.82
2019-03-22T02:01:38.347Z,1011.82
2019-03-22T02:02:38.323Z,1011.82
2019-03-22T02:03:38.291Z,1011.81
2019-03-22T02:04:38.273Z,1011.78
2019-03-22T02:05:38.262Z,1011.81
2019-03-22T02:06:38.256Z,1011.80
2019-03-22T02:07:38.319Z,1011.80
2019-03-22T02:08:38.248Z,1011.80
2019-03-22T02:09:38.220Z,1011.85
2019-03-22T02:10:38.208Z,1011.80
2019-03-22T02:11:38.199Z,1011.79
2019-03-22T02:12:38.196Z,1011.83
2019-03-22T02:13:38.239Z,1011.78
2019-03-22T02:14:38.191Z,1011.78
2019-03-22T02:15:38.163Z,1011.79
2019-03-22T02:16:38.161Z,1011.80
2019-03-22T02:17:38.138Z,1011.78
2019-03-22T02:18:38.120Z,1011.76
2019-03-22T02:19:38.428Z,1011.78
2019-03-22T02:20:38.101Z,1011.77
2019-03-22T02:21:38.128Z,1011.76
2019-03-22T02:22:38.148Z,1011.74
2019-03-22T02:23:38.069Z,1011.76
2019-03-22T02:24:38.058Z,1011.75
2019-03-22T02:25:38.138Z,1011.79
2019-03-22T02:26:38.045Z,1011.81
2019-03-22T02:27:38.029Z,1011.83
2019-03-22T02:28:38.050Z,1011.78
2019-03-22T02:29:38.004Z,1011.82
2019-03-22T02:30:37.998Z,1011.78
2019-03-22T02:31:38.052Z,1011.78
2019-03-22T02:32:37.980Z,1011.72
2019-03-22T02:33:37.961Z,1011.72
2019-03-22T02:34:37.996Z,1011.76
2019-03-22T02:35:37.962Z,1011.74
2019-03-22T02:36:37.930Z,1011.74
2019-03-22T02:37:38.010Z,1011.75
2019-03-22T02:38:37.919Z,1011.74
2019-03-22T02:39:38.017Z,1011.75
2019-03-22T02:40:37.891Z,1011.85
2019-03-22T02:41:37.877Z,1011.86
2019-03-22T02:42:37.883Z,1011.87
2019-03-22T02:43:37.889Z,1011.80
2019-03-22T02:44:37.840Z,1011.80
2019-03-22T02:45:37.832Z,1011.78
2019-03-22T02:46:37.828Z,1011.74
2019-03-22T02:47:37.830Z,1011.77
2019-03-22T02:48:37.798Z,1011.71
2019-03-22T02:49:37.865Z,1011.70
2019-03-22T02:50:37.791Z,1011.68
2019-03-22T02:51:37.763Z,1011.69
2019-03-22T02:52:37.754Z,1011.65
2019-03-22T02:53:37.781Z,1011.66
2019-03-22T02:54:37.763Z,1011.64
2019-03-22T02:55:37.813Z,1011.64
2019-03-22T02:56:37.728Z,1011.63
2019-03-22T02:57:37.734Z,1011.62
2019-03-22T02:58:37.714Z,1011.60
2019-03-22T02:59:37.750Z,1011.58
2019-03-22T03:00:37.693Z,1011.63
2019-03-22T03:01:37.696Z,1011.58
2019-03-22T03:02:37.672Z,1011.63
2019-03-22T03:03:37.641Z,1011.58
2019-03-22T03:04:37.639Z,1011.59
2019-03-22T03:05:37.656Z,1011.60
2019-03-22T03:06:37.600Z,1011.62
2019-03-22T03:07:37.653Z,1011.62
2019-03-22T03:08:37.591Z,1011.60
2019-03-22T03:09:37.571Z,1011.57
2019-03-22T03:10:37.590Z,1011.61
2019-03-22T03:11:37.550Z,1011.60
2019-03-22T03:12:37.584Z,1011.60
2019-03-22T03:13:37.586Z,1011.61
2019-03-22T03:14:37.515Z,1011.61
2019-03-22T03:15:37.515Z,1011.59
2019-03-22T03:16:37.573Z,1011.60
2019-03-22T03:17:37.483Z,1011.63
2019-03-22T03:18:37.473Z,1011.61
2019-03-22T03:19:37.492Z,1011.63
2019-03-22T03:20:37.455Z,1011.64
2019-03-22T03:21:37.444Z,1011.61
2019-03-22T03:22:37.453Z,1011.58
2019-03-22T03:23:37.422Z,1011.54
2019-03-22T03:24:37.422Z,1011.55
2019-03-22T03:25:37.451Z,1011.51
2019-03-22T03:26:37.426Z,1011.49
2019-03-22T03:27:37.465Z,1011.48
2019-03-22T03:28:37.622Z,1011.39
2019-03-22T03:29:37.382Z,1011.40
2019-03-22T03:30:37.480Z,1011.37
2019-03-22T03:31:37.620Z,1011.37
2019-03-22T03:32:37.319Z,1011.43
2019-03-22T03:33:37.353Z,1011.42
2019-03-22T03:34:37.361Z,1011.45
2019-03-22T03:35:37.306Z,1011.42
2019-03-22T03:36:37.300Z,1011.37
2019-03-22T03:37:37.504Z,1011.44
2019-03-22T03:38:37.369Z,1011.36
2019-03-22T03:39:37.249Z,1011.39
2019-03-22T03:40:37.232Z,1011.40
2019-03-22T03:41:37.264Z,1011.35
2019-03-22T03:42:37.226Z,1011.39
2019-03-22T03:43:37.251Z,1011.37
2019-03-22T03:44:37.227Z,1011.39
2019-03-22T03:45:37.222Z,1011.37
2019-03-22T03:46:37.176Z,1011.41
2019-03-22T03:47:37.162Z,1011.38
2019-03-22T03:48:37.161Z,1011.37
2019-03-22T03:49:37.219Z,1011.35
2019-03-22T03:50:37.129Z,1011.34
2019-03-22T03:51:37.208Z,1011.34
2019-03-22T03:52:39.469Z,1011.28
2019-03-22T03:53:37.093Z,1011.29
2019-03-22T03:54:37.105Z,1011.26
2019-03-22T03:55:37.141Z,1011.31
2019-03-22T03:56:37.106Z,1011.24
2019-03-22T03:57:37.056Z,1011.26
2019-03-22T03:58:51.615Z,1011.29
2019-03-22T03:59:38.035Z,1011.29
2019-03-22T04:00:37.031Z,1011.31
2019-03-22T04:01:37.056Z,1011.28
2019-03-22T04:02:37.048Z,1011.29
2019-03-22T04:03:36.994Z,1011.32
2019-03-22T04:04:36.985Z,1011.31
2019-03-22T04:05:36.969Z,1011.33
2019-03-22T04:06:36.973Z,1011.34
2019-03-22T04:07:36.995Z,1011.36
2019-03-22T04:08:36.935Z,1011.32
2019-03-22T04:09:36.952Z,1011.34
2019-03-22T04:10:36.913Z,1011.35
2019-03-22T04:11:36.902Z,1011.31
2019-03-22T04:12:36.885Z,1011.32
2019-03-22T04:13:36.981Z,1011.31
2019-03-22T04:14:36.878Z,1011.27
2019-03-22T04:15:36.873Z,1011.29
2019-03-22T04:16:36.870Z,1011.34
2019-03-22T04:17:36.843Z,1011.29
2019-03-22T04:18:36.826Z,1011.31
2019-03-22T04:19:36.863Z,1011.38
2019-03-22T04:20:36.798Z,1011.34
2019-03-22T04:21:36.856Z,1011.35
2019-03-22T04:22:36.777Z,1011.38
2019-03-22T04:23:36.775Z,1011.33
2019-03-22T04:24:36.752Z,1011.28
2019-03-22T04:25:36.827Z,1011.33
2019-03-22T04:26:36.737Z,1011.31
2019-03-22T04:27:36.735Z,1011.31
2019-03-22T04:28:36.795Z,1011.30
2019-03-22T04:29:36.704Z,1011.25
2019-03-22T04:30:36.820Z,1011.25
2019-03-22T04:31:38.773Z,1011.34
2019-03-22T04:32:36.665Z,1011.33
2019-03-22T04:33:36.656Z,1011.29
2019-03-22T04:34:36.715Z,1011.32
2019-03-22T04:35:36.696Z,1011.33
2019-03-22T04:36:36.717Z,1011.33
2019-03-22T04:37:37.012Z,1011.32
2019-03-22T04:38:36.734Z,1011.35
2019-03-22T04:39:36.605Z,1011.36
2019-03-22T04:40:37.089Z,1011.35
2019-03-22T04:41:36.612Z,1011.35
2019-03-22T04:42:36.570Z,1011.34
2019-03-22T04:43:36.901Z,1011.36
2019-03-22T04:44:36.619Z,1011.35
2019-03-22T04:45:36.616Z,1011.30
2019-03-22T04:46:36.643Z,1011.28
2019-03-22T04:47:36.601Z,1011.27
2019-03-22T04:48:36.547Z,1011.27
2019-03-22T04:49:36.795Z,1011.29
2019-03-22T04:51:58.158Z,1011.29
2019-03-22T04:52:58.066Z,1011.25
2019-03-22T04:53:58.045Z,1011.25
2019-03-22T04:54:58.060Z,1011.30
2019-03-22T04:55:58.022Z,1011.28
2019-03-22T04:56:57.997Z,1011.29
2019-03-22T04:57:57.981Z,1011.28
2019-03-22T04:58:57.990Z,1011.28
2019-03-22T04:59:57.982Z,1011.27
2019-03-22T05:00:58.003Z,1011.28
2019-03-22T05:01:57.947Z,1011.31
2019-03-22T05:02:57.935Z,1011.32
2019-03-22T05:03:59.121Z,1011.27
2019-03-22T05:04:57.907Z,1011.28
2019-03-22T05:05:57.899Z,1011.25
2019-03-22T05:06:57.937Z,1011.26
2019-03-22T05:07:57.875Z,1011.24
2019-03-22T05:08:57.879Z,1011.24
2019-03-22T05:09:57.872Z,1011.31
2019-03-22T05:10:57.844Z,1011.26
2019-03-22T05:11:57.832Z,1011.32
2019-03-22T05:12:57.873Z,1011.26
2019-03-22T05:13:57.814Z,1011.29
2019-03-22T05:14:57.802Z,1011.31
2019-03-22T05:15:57.829Z,1011.33
2019-03-22T05:16:57.790Z,1011.31
2019-03-22T05:17:57.770Z,1011.32
2019-03-22T05:18:57.800Z,1011.35
2019-03-22T05:19:57.747Z,1011.34
2019-03-22T05:20:57.738Z,1011.41
2019-03-22T05:21:57.750Z,1011.33
2019-03-22T05:22:57.722Z,1011.31
2019-03-22T05:23:57.703Z,1011.30
2019-03-22T05:24:57.721Z,1011.31
2019-03-22T05:25:57.680Z,1011.33
2019-03-22T05:26:57.678Z,1011.28
2019-03-22T05:27:57.688Z,1011.33
2019-03-22T05:28:57.655Z,1011.33
2019-03-22T05:29:57.642Z,1011.32
2019-03-22T05:30:57.680Z,1011.31
2019-03-22T05:31:57.617Z,1011.30
2019-03-22T05:32:57.631Z,1011.32
2019-03-22T05:33:57.598Z,1011.31
2019-03-22T05:34:57.635Z,1011.30
2019-03-22T05:35:57.574Z,1011.38
2019-03-22T05:36:57.597Z,1011.38
2019-03-22T05:37:57.568Z,1011.43
2019-03-22T05:38:57.544Z,1011.39
2019-03-22T05:39:57.533Z,1011.45
2019-03-22T05:40:57.555Z,1011.47
2019-03-22T05:41:57.562Z,1011.45
2019-03-22T05:42:57.527Z,1011.48
2019-03-22T05:43:57.509Z,1011.48
2019-03-22T05:44:57.497Z,1011.49
2019-03-22T05:45:57.475Z,1011.49
2019-03-22T05:46:57.507Z,1011.46
2019-03-22T05:47:57.450Z,1011.50
2019-03-22T05:48:57.478Z,1011.49
2019-03-22T05:49:57.420Z,1011.50
2019-03-22T05:50:57.407Z,1011.54
2019-03-22T05:51:57.412Z,1011.53
2019-03-22T05:52:57.434Z,1011.52
2019-03-22T05:53:57.380Z,1011.51
2019-03-22T05:54:57.424Z,1011.53
2019-03-22T05:55:57.356Z,1011.56
2019-03-22T05:56:57.344Z,1011.57
2019-03-22T05:57:57.334Z,1011.60
2019-03-22T05:58:57.414Z,1011.60
2019-03-22T05:59:57.419Z,1011.60
2019-03-22T06:00:57.375Z,1011.54
2019-03-22T06:01:57.285Z,1011.55
2019-03-22T06:02:57.275Z,1011.59
2019-03-22T06:03:57.282Z,1011.60
2019-03-22T06:04:57.251Z,1011.59
2019-03-22T06:05:57.244Z,1011.63
2019-03-22T06:06:57.374Z,1011.58
2019-03-22T06:07:57.321Z,1011.60
2019-03-22T06:08:57.210Z,1011.63
2019-03-22T06:09:57.198Z,1011.60
2019-03-22T06:10:57.192Z,1011.65
2019-03-22T06:11:57.184Z,1011.71
2019-03-22T06:12:57.213Z,1011.69
2019-03-22T06:13:57.171Z,1011.67
2019-03-22T06:14:57.147Z,1011.67
2019-03-22T06:15:57.136Z,1011.56
2019-03-22T06:16:57.128Z,1011.62
2019-03-22T06:17:57.113Z,1011.58
2019-03-22T06:18:57.161Z,1011.58
2019-03-22T06:19:57.096Z,1011.56
2019-03-22T06:20:57.078Z,1011.57
2019-03-22T06:21:57.069Z,1011.56
2019-03-22T06:22:57.061Z,1011.56
2019-03-22T06:23:57.060Z,1011.58
2019-03-22T06:24:57.086Z,1011.55
2019-03-22T06:25:57.028Z,1011.56
2019-03-22T06:26:57.023Z,1011.59
2019-03-22T06:27:57.135Z,1011.57
2019-03-22T06:28:57.023Z,1011.52
2019-03-22T06:29:57.007Z,1011.56
2019-03-22T06:30:57.053Z,1011.43
2019-03-22T06:31:57.054Z,1011.49
2019-03-22T06:32:57.024Z,1011.46
2019-03-22T06:33:56.963Z,1011.46
2019-03-22T06:34:56.947Z,1011.47
2019-03-22T06:35:56.988Z,1011.50
2019-03-22T06:36:56.973Z,1011.46
2019-03-22T06:37:56.914Z,1011.53
2019-03-22T06:38:56.912Z,1011.52
2019-03-22T06:39:56.875Z,1011.47
2019-03-22T06:40:56.916Z,1011.49
2019-03-22T06:41:56.882Z,1011.52
2019-03-22T06:42:56.893Z,1011.50
2019-03-22T06:43:56.864Z,1011.51
2019-03-22T06:44:56.837Z,1011.54
2019-03-22T06:45:56.826Z,1011.52
2019-03-22T06:46:56.817Z,1011.53
2019-03-22T06:47:56.807Z,1011.55
2019-03-22T06:48:56.927Z,1011.54
2019-03-22T06:49:56.763Z,1011.54
2019-03-22T06:50:56.752Z,1011.47
2019-03-22T06:51:56.742Z,1011.50
2019-03-22T06:52:56.737Z,1011.46
2019-03-22T06:53:56.726Z,1011.46
2019-03-22T06:54:56.743Z,1011.39
2019-03-22T06:55:56.697Z,1011.44
2019-03-22T06:56:56.686Z,1011.45
2019-03-22T06:57:56.687Z,1011.45
2019-03-22T06:58:56.668Z,1011.42
2019-03-22T07:00:05.920Z,1011.44
2019-03-22T07:00:57.806Z,1011.44
2019-03-22T07:01:56.699Z,1011.45
2019-03-22T07:02:56.907Z,1011.44
2019-03-22T07:03:57.161Z,1011.43
2019-03-22T07:04:56.735Z,1011.43
2019-03-22T07:05:56.589Z,1011.43
2019-03-22T07:06:56.640Z,1011.45
2019-03-22T07:07:56.566Z,1011.43
2019-03-22T07:08:56.637Z,1011.39
2019-03-22T07:09:56.566Z,1011.39
2019-03-22T07:10:56.539Z,1011.41
2019-03-22T07:11:56.595Z,1011.40
2019-03-22T07:12:56.546Z,1011.42
2019-03-22T07:13:56.529Z,1011.39
2019-03-22T07:14:56.499Z,1011.39
2019-03-22T07:15:56.482Z,1011.40
2019-03-22T07:16:58.746Z,1011.47
2019-03-22T07:17:56.523Z,1011.47
2019-03-22T07:18:56.681Z,1011.47
2019-03-22T07:19:56.479Z,1011.49
2019-03-22T07:20:56.426Z,1011.46
2019-03-22T07:21:56.416Z,1011.43
2019-03-22T07:22:56.482Z,1011.44
2019-03-22T07:23:56.392Z,1011.45
2019-03-22T07:24:56.435Z,1011.46
2019-03-22T07:25:56.369Z,1011.48
2019-03-22T07:26:56.354Z,1011.53
2019-03-22T07:27:56.356Z,1011.50
2019-03-22T07:28:56.337Z,1011.46
2019-03-22T07:29:56.321Z,1011.49
2019-03-22T07:30:56.365Z,1011.53
2019-03-22T07:31:56.303Z,1011.54
2019-03-22T07:32:56.289Z,1011.53
2019-03-22T07:33:56.284Z,1011.52
2019-03-22T07:34:56.280Z,1011.53
2019-03-22T07:35:56.257Z,1011.53
2019-03-22T07:36:56.317Z,1011.50
2019-03-22T07:37:56.233Z,1011.49
2019-03-22T07:38:56.233Z,1011.49
2019-03-22T07:39:56.217Z,1011.49
2019-03-22T07:40:56.223Z,1011.46
2019-03-22T07:41:56.189Z,1011.53
2019-03-22T07:42:56.236Z,1011.50
2019-03-22T07:43:56.213Z,1011.47
2019-03-22T07:44:56.260Z,1011.48
2019-03-22T07:45:56.295Z,1011.50
2019-03-22T07:46:56.136Z,1011.49
2019-03-22T07:47:56.128Z,1011.55
2019-03-22T07:48:56.196Z,1011.55
2019-03-22T07:49:56.150Z,1011.56
2019-03-22T07:50:56.115Z,1011.56
2019-03-22T07:51:56.200Z,1011.58
2019-03-22T07:52:56.077Z,1011.61
2019-03-22T07:53:56.064Z,1011.57
2019-03-22T07:54:56.107Z,1011.58
2019-03-22T07:55:56.036Z,1011.58
2019-03-22T07:56:56.032Z,1011.56
2019-03-22T07:57:56.025Z,1011.56
2019-03-22T07:58:56.117Z,1011.56
2019-03-22T07:59:55.994Z,1011.55
2019-03-22T08:00:56.029Z,1011.59
2019-03-22T08:01:56.032Z,1011.56
2019-03-22T08:02:56.147Z,1011.57
2019-03-22T08:03:55.953Z,1011.52
2019-03-22T08:04:55.939Z,1011.55
2019-03-22T08:05:55.929Z,1011.52
2019-03-22T08:06:55.992Z,1011.54
2019-03-22T08:07:56.209Z,1011.54
2019-03-22T08:08:55.895Z,1011.59
2019-03-22T08:09:55.982Z,1011.57
2019-03-22T08:10:55.914Z,1011.63
2019-03-22T08:11:55.909Z,1011.63
2019-03-22T08:12:55.937Z,1011.64
2019-03-22T08:13:55.849Z,1011.66
2019-03-22T08:14:55.849Z,1011.65
2019-03-22T08:15:57.528Z,1011.66
2019-03-22T08:16:55.835Z,1011.61
2019-03-22T08:17:57.067Z,1011.63
2019-03-22T08:18:55.858Z,1011.68
2019-03-22T08:19:57.282Z,1011.61
2019-03-22T08:20:55.763Z,1011.60
2019-03-22T08:21:55.752Z,1011.55
2019-03-22T08:22:55.741Z,1011.56
2019-03-22T08:23:55.727Z,1011.55
2019-03-22T08:24:55.781Z,1011.54
2019-03-22T08:25:55.729Z,1011.53
2019-03-22T08:26:55.701Z,1011.51
2019-03-22T08:27:55.710Z,1011.52
2019-03-22T08:28:55.677Z,1011.53
2019-03-22T08:29:55.663Z,1011.51
2019-03-22T08:30:55.690Z,1011.54
2019-03-22T08:31:55.664Z,1011.56
2019-03-22T08:32:55.632Z,1011.55
2019-03-22T08:33:55.630Z,1011.46
2019-03-22T08:34:55.608Z,1011.49
2019-03-22T08:35:55.608Z,1011.49
2019-03-22T08:36:55.643Z,1011.43
2019-03-22T08:37:55.595Z,1011.50
2019-03-22T08:38:55.562Z,1011.44
2019-03-22T08:39:55.964Z,1011.43
2019-03-22T08:40:55.565Z,1011.38
2019-03-22T08:41:55.614Z,1011.44
2019-03-22T08:42:55.558Z,1011.39
2019-03-22T08:43:55.526Z,1011.42
2019-03-22T08:44:55.491Z,1011.37
2019-03-22T08:45:55.497Z,1011.39
2019-03-22T08:46:55.487Z,1011.37
2019-03-22T08:47:55.511Z,1011.35
2019-03-22T08:48:55.580Z,1011.34
2019-03-22T08:49:55.479Z,1011.34
2019-03-22T08:50:55.474Z,1011.33
2019-03-22T08:51:55.414Z,1011.34
2019-03-22T08:52:55.406Z,1011.32
2019-03-22T08:53:55.874Z,1011.31
2019-03-22T08:54:55.433Z,1011.28
2019-03-22T08:55:55.372Z,1011.30
2019-03-22T08:56:55.429Z,1011.29
2019-03-22T08:57:55.347Z,1011.29
2019-03-22T08:58:55.342Z,1011.31
2019-03-22T08:59:55.345Z,1011.26
2019-03-22T09:00:57.894Z,1011.27
2019-03-22T09:01:55.361Z,1011.25
2019-03-22T09:02:55.309Z,1011.27
2019-03-22T09:03:55.282Z,1011.24
2019-03-22T09:04:55.280Z,1011.25
2019-03-22T09:05:55.265Z,1011.26
2019-03-22T09:06:55.281Z,1011.23
2019-03-22T09:07:55.281Z,1011.21
2019-03-22T09:08:55.299Z,1011.19
2019-03-22T09:09:55.264Z,1011.14
2019-03-22T09:10:55.204Z,1011.16
2019-03-22T09:11:55.194Z,1011.19
2019-03-22T09:12:55.222Z,1011.16
2019-03-22T09:13:55.172Z,1011.21
2019-03-22T09:14:55.182Z,1011.14
2019-03-22T09:15:55.182Z,1011.16
2019-03-22T09:16:55.159Z,1011.24
2019-03-22T09:17:55.152Z,1011.16
2019-03-22T09:18:55.166Z,1011.17
2019-03-22T09:19:55.155Z,1011.19
2019-03-22T09:20:55.151Z,1011.16
2019-03-22T09:21:55.122Z,1011.14
2019-03-22T09:22:55.115Z,1011.14
2019-03-22T09:23:55.100Z,1011.15
2019-03-22T09:24:55.137Z,1011.12
2019-03-22T09:25:55.079Z,1011.09
2019-03-22T09:26:55.066Z,1011.08
2019-03-22T09:27:55.051Z,1011.07
2019-03-22T09:28:55.065Z,1011.02
2019-03-22T09:29:55.009Z,1010.99
2019-03-22T09:30:55.196Z,1010.99
2019-03-22T09:31:54.979Z,1010.96
2019-03-22T09:32:54.978Z,1010.97
2019-03-22T09:33:54.950Z,1010.95
2019-03-22T09:34:54.995Z,1010.94
2019-03-22T09:35:54.930Z,1010.92
2019-03-22T09:36:54.979Z,1010.94
2019-03-22T09:37:54.926Z,1010.95
2019-03-22T09:38:54.934Z,1010.95
2019-03-22T09:39:54.891Z,1010.98
2019-03-22T09:40:54.922Z,1010.92
2019-03-22T09:41:54.862Z,1010.92
2019-03-22T09:42:54.939Z,1010.95
2019-03-22T09:43:54.838Z,1010.95
2019-03-22T09:44:54.840Z,1010.93
2019-03-22T09:45:54.855Z,1010.95
2019-03-22T09:46:54.822Z,1010.89
2019-03-22T09:47:54.790Z,1010.90
2019-03-22T09:48:54.825Z,1010.90
2019-03-22T09:49:54.788Z,1010.89
2019-03-22T09:50:54.787Z,1010.92
2019-03-22T09:51:55.292Z,1010.84
2019-03-22T09:52:54.741Z,1010.91
2019-03-22T09:53:54.780Z,1010.88
2019-03-22T09:54:54.844Z,1010.87
2019-03-22T09:55:54.703Z,1010.86
2019-03-22T09:56:54.707Z,1010.83
2019-03-22T09:57:54.719Z,1010.79
2019-03-22T09:58:54.676Z,1010.82
2019-03-22T09:59:54.661Z,1010.79
2019-03-22T10:00:54.744Z,1010.80
2019-03-22T10:01:54.642Z,1010.80
2019-03-22T10:02:54.631Z,1010.76
2019-03-22T10:03:54.682Z,1010.77
2019-03-22T10:04:54.627Z,1010.78
2019-03-22T10:05:54.625Z,1010.76
2019-03-22T10:06:54.651Z,1010.73
2019-03-22T10:07:54.564Z,1010.70
2019-03-22T10:08:54.559Z,1010.67
2019-03-22T10:09:54.567Z,1010.65
2019-03-22T10:10:54.538Z,1010.64
2019-03-22T10:11:54.601Z,1010.63
2019-03-22T10:12:54.674Z,1010.61
2019-03-22T10:13:54.556Z,1010.59
2019-03-22T10:14:54.496Z,1010.59
2019-03-22T10:15:54.532Z,1010.62
2019-03-22T10:16:54.471Z,1010.59
2019-03-22T10:17:54.453Z,1010.57
2019-03-22T10:18:54.521Z,1010.55
2019-03-22T10:19:54.461Z,1010.55
2019-03-22T10:20:54.428Z,1010.54
2019-03-22T10:21:54.477Z,1010.56
2019-03-22T10:22:54.433Z,1010.55
2019-03-22T10:23:54.429Z,1010.52
2019-03-22T10:24:54.474Z,1010.52
2019-03-22T10:25:54.429Z,1010.52
2019-03-22T10:26:54.355Z,1010.51
2019-03-22T10:27:54.436Z,1010.54
2019-03-22T10:28:54.391Z,1010.53
2019-03-22T10:29:54.336Z,1010.46
2019-03-22T10:30:54.347Z,1010.49
2019-03-22T10:31:54.316Z,1010.45
2019-03-22T10:32:54.295Z,1010.44
2019-03-22T10:33:54.303Z,1010.45
2019-03-22T10:34:54.272Z,1010.46
2019-03-22T10:35:54.271Z,1010.42
2019-03-22T10:36:54.328Z,1010.40
2019-03-22T10:38:00.412Z,1010.44
2019-03-22T10:38:55.261Z,1010.41
2019-03-22T10:39:54.230Z,1010.39
2019-03-22T10:40:54.228Z,1010.36
2019-03-22T10:41:54.189Z,1010.31
2019-03-22T10:42:54.231Z,1010.34
2019-03-22T10:43:54.263Z,1010.32
2019-03-22T10:44:54.174Z,1010.25
2019-03-22T10:45:54.168Z,1010.25
2019-03-22T10:46:54.298Z,1010.25
2019-03-22T10:47:54.129Z,1010.23
2019-03-22T10:48:54.146Z,1010.21
2019-03-22T10:49:54.101Z,1010.21
2019-03-22T10:50:54.221Z,1010.20
2019-03-22T10:51:57.392Z,1010.20
2019-03-22T10:52:54.070Z,1010.24
2019-03-22T10:53:54.103Z,1010.14
2019-03-22T10:54:54.078Z,1010.20
2019-03-22T10:55:54.040Z,1010.14
2019-03-22T10:56:54.073Z,1010.16
2019-03-22T10:57:55.465Z,1010.17
2019-03-22T10:58:54.232Z,1010.14
2019-03-22T10:59:54.014Z,1010.15
2019-03-22T11:00:54.016Z,1010.13
2019-03-22T11:02:03.070Z,1010.09
2019-03-22T11:02:54.957Z,1010.08
2019-03-22T11:03:54.055Z,1010.07
2019-03-22T11:04:53.939Z,1010.05
2019-03-22T11:05:53.924Z,1010.05
2019-03-22T11:06:53.952Z,1009.98
2019-03-22T11:07:53.903Z,1010.03
2019-03-22T11:08:53.919Z,1009.98
2019-03-22T11:09:53.879Z,1009.94
2019-03-22T11:10:53.869Z,1009.97
2019-03-22T11:11:53.881Z,1009.96
2019-03-22T11:12:53.877Z,1009.97
2019-03-22T11:13:53.837Z,1009.96
2019-03-22T11:14:53.840Z,1009.96
2019-03-22T11:15:53.814Z,1009.89
2019-03-22T11:16:53.810Z,1009.96
2019-03-22T11:17:54.203Z,1009.91
2019-03-22T11:18:53.896Z,1009.93
2019-03-22T11:19:53.770Z,1009.89
2019-03-22T11:20:53.765Z,1009.88
2019-03-22T11:21:53.782Z,1009.86
2019-03-22T11:22:53.740Z,1009.87
2019-03-22T11:23:53.728Z,1009.87
2019-03-22T11:24:53.762Z,1009.84
2019-03-22T11:26:00.279Z,1009.84
2019-03-22T11:26:54.690Z,1009.81
2019-03-22T11:27:53.682Z,1009.80
2019-03-22T11:28:53.669Z,1009.80
2019-03-22T11:29:53.663Z,1009.77
2019-03-22T11:30:53.711Z,1009.78
2019-03-22T11:31:53.636Z,1009.77
2019-03-22T11:32:53.625Z,1009.75
2019-03-22T11:33:53.616Z,1009.79
2019-03-22T11:34:53.603Z,1009.74
2019-03-22T11:35:53.599Z,1009.77
2019-03-22T11:36:53.660Z,1009.75
2019-03-22T11:37:53.569Z,1009.68
2019-03-22T11:38:53.561Z,1009.75
2019-03-22T11:39:53.545Z,1009.72
2019-03-22T11:40:53.537Z,1009.72
2019-03-22T11:41:53.530Z,1009.71
2019-03-22T11:42:53.572Z,1009.70
2019-03-22T11:43:53.505Z,1009.67
2019-03-22T11:44:53.609Z,1009.65
2019-03-22T11:45:53.562Z,1009.66
2019-03-22T11:46:53.473Z,1009.62
2019-03-22T11:47:53.509Z,1009.57
2019-03-22T11:48:53.490Z,1009.53
2019-03-22T11:49:53.443Z,1009.55
2019-03-22T11:50:53.431Z,1009.60
2019-03-22T11:51:53.431Z,1009.54
2019-03-22T11:52:53.401Z,1009.52
2019-03-22T11:53:53.396Z,1009.56
2019-03-22T11:54:53.414Z,1009.55
2019-03-22T11:55:53.370Z,1009.56
2019-03-22T11:56:53.411Z,1009.51
2019-03-22T11:57:53.373Z,1009.52
2019-03-22T11:58:53.372Z,1009.48
2019-03-22T11:59:53.327Z,1009.46
2019-03-22T12:00:53.355Z,1009.47
2019-03-22T12:01:53.307Z,1009.43
2019-03-22T12:02:53.298Z,1009.41
2019-03-22T12:03:53.283Z,1009.40
2019-03-22T12:04:53.275Z,1009.35
2019-03-22T12:05:53.269Z,1009.35
2019-03-22T12:06:53.301Z,1009.38